sensor_id;sensor_type;location;lat;lon;timestamp;P1;durP1;ratioP1;P2;durP2;ratioP2
56081;SDS011;41957;52.060;5.138;2022-11-20T00:00:51;11.63;;;4.45;;
56081;SDS011;41957;52.060;5.138;2022-11-20T00:03:17;12.32;;;4.85;;
56081;SDS011;41957;52.060;5.138;2022-11-20T00:05:42;12.35;;;4.78;;
56081;SDS011;41957;52.060;5.138;2022-11-20T00:08:08;12.65;;;4.90;;
56081;SDS011;41957;52.060;5.138;2022-11-20T00:10:35;12.50;;;4.95;;
56081;SDS011;41957;52.060;5.138;2022-11-20T00:13:02;12.50;;;4.60;;
56081;SDS011;41957;52.060;5.138;2022-11-20T00:15:27;12.38;;;4.78;;
56081;SDS011;41957;52.060;5.138;2022-11-20T00:17:52;11.95;;;4.50;;
56081;SDS011;41957;52.060;5.138;2022-11-20T00:20:18;12.52;;;4.60;;
56081;SDS011;41957;52.060;5.138;2022-11-20T00:22:43;12.13;;;4.57;;
56081;SDS011;41957;52.060;5.138;2022-11-20T00:25:09;11.93;;;4.85;;
56081;SDS011;41957;52.060;5.138;2022-11-20T00:27:34;11.93;;;4.72;;
56081;SDS011;41957;52.060;5.138;2022-11-20T00:30:00;12.13;;;4.93;;
56081;SDS011;41957;52.060;5.138;2022-11-20T00:32:25;11.95;;;4.53;;
56081;SDS011;41957;52.060;5.138;2022-11-20T00:34:50;12.52;;;4.78;;
56081;SDS011;41957;52.060;5.138;2022-11-20T00:37:16;12.10;;;4.63;;
56081;SDS011;41957;52.060;5.138;2022-11-20T00:39:41;12.90;;;5.20;;
56081;SDS011;41957;52.060;5.138;2022-11-20T00:42:06;12.63;;;5.03;;
56081;SDS011;41957;52.060;5.138;2022-11-20T00:44:32;12.45;;;4.45;;
56081;SDS011;41957;52.060;5.138;2022-11-20T00:46:57;11.82;;;4.68;;
56081;SDS011;41957;52.060;5.138;2022-11-20T00:49:22;11.20;;;4.28;;
56081;SDS011;41957;52.060;5.138;2022-11-20T00:51:48;11.98;;;4.68;;
56081;SDS011;41957;52.060;5.138;2022-11-20T00:54:13;12.60;;;4.90;;
56081;SDS011;41957;52.060;5.138;2022-11-20T00:56:38;13.63;;;4.97;;
56081;SDS011;41957;52.060;5.138;2022-11-20T00:59:04;12.10;;;5.00;;
56081;SDS011;41957;52.060;5.138;2022-11-20T01:01:30;12.32;;;4.82;;
56081;SDS011;41957;52.060;5.138;2022-11-20T01:03:56;12.20;;;4.45;;
56081;SDS011;41957;52.060;5.138;2022-11-20T01:06:25;14.27;;;4.68;;
56081;SDS011;41957;52.060;5.138;2022-11-20T01:08:53;13.23;;;5.35;;
56081;SDS011;41957;52.060;5.138;2022-11-20T01:11:22;13.10;;;4.78;;
56081;SDS011;41957;52.060;5.138;2022-11-20T01:13:50;12.75;;;5.07;;
56081;SDS011;41957;52.060;5.138;2022-11-20T01:18:45;12.80;;;5.50;;
56081;SDS011;41957;52.060;5.138;2022-11-20T01:21:13;12.15;;;4.70;;
56081;SDS011;41957;52.060;5.138;2022-11-20T01:23:50;12.88;;;5.10;;
56081;SDS011;41957;52.060;5.138;2022-11-20T01:26:17;11.38;;;4.47;;
56081;SDS011;41957;52.060;5.138;2022-11-20T01:31:20;12.40;;;4.75;;
56081;SDS011;41957;52.060;5.138;2022-11-20T01:33:48;12.25;;;4.80;;
56081;SDS011;41957;52.060;5.138;2022-11-20T01:36:16;12.05;;;4.70;;
56081;SDS011;41957;52.060;5.138;2022-11-20T01:38:42;12.63;;;4.65;;
56081;SDS011;41957;52.060;5.138;2022-11-20T01:41:08;12.43;;;4.72;;
56081;SDS011;41957;52.060;5.138;2022-11-20T01:43:35;12.75;;;5.03;;
56081;SDS011;41957;52.060;5.138;2022-11-20T01:46:17;13.23;;;5.13;;
56081;SDS011;41957;52.060;5.138;2022-11-20T01:54:05;12.90;;;5.43;;
56081;SDS011;41957;52.060;5.138;2022-11-20T01:56:35;15.60;;;4.97;;
56081;SDS011;41957;52.060;5.138;2022-11-20T01:59:04;12.35;;;4.90;;
56081;SDS011;41957;52.060;5.138;2022-11-20T02:01:31;13.65;;;5.47;;
56081;SDS011;41957;52.060;5.138;2022-11-20T02:03:58;13.02;;;5.13;;
56081;SDS011;41957;52.060;5.138;2022-11-20T02:09:11;13.27;;;5.00;;
56081;SDS011;41957;52.060;5.138;2022-11-20T02:11:36;13.45;;;5.03;;
56081;SDS011;41957;52.060;5.138;2022-11-20T02:14:02;14.48;;;5.55;;
56081;SDS011;41957;52.060;5.138;2022-11-20T02:16:31;13.27;;;5.00;;
56081;SDS011;41957;52.060;5.138;2022-11-20T02:18:59;13.90;;;5.40;;
56081;SDS011;41957;52.060;5.138;2022-11-20T02:21:29;12.70;;;5.20;;
56081;SDS011;41957;52.060;5.138;2022-11-20T02:26:54;13.02;;;5.30;;
56081;SDS011;41957;52.060;5.138;2022-11-20T02:32:24;12.75;;;5.10;;
56081;SDS011;41957;52.060;5.138;2022-11-20T02:34:51;12.93;;;4.60;;
56081;SDS011;41957;52.060;5.138;2022-11-20T02:37:16;13.60;;;5.22;;
56081;SDS011;41957;52.060;5.138;2022-11-20T02:39:44;12.45;;;5.10;;
56081;SDS011;41957;52.060;5.138;2022-11-20T02:42:11;12.30;;;5.30;;
56081;SDS011;41957;52.060;5.138;2022-11-20T02:44:37;13.00;;;4.88;;
56081;SDS011;41957;52.060;5.138;2022-11-20T02:47:02;11.85;;;4.63;;
56081;SDS011;41957;52.060;5.138;2022-11-20T02:49:28;14.20;;;5.38;;
56081;SDS011;41957;52.060;5.138;2022-11-20T02:51:53;12.25;;;4.85;;
56081;SDS011;41957;52.060;5.138;2022-11-20T02:54:18;13.23;;;5.10;;
56081;SDS011;41957;52.060;5.138;2022-11-20T02:56:44;13.43;;;5.80;;
56081;SDS011;41957;52.060;5.138;2022-11-20T02:59:09;12.35;;;4.75;;
56081;SDS011;41957;52.060;5.138;2022-11-20T03:01:35;14.40;;;5.45;;
56081;SDS011;41957;52.060;5.138;2022-11-20T03:04:00;13.32;;;5.15;;
56081;SDS011;41957;52.060;5.138;2022-11-20T03:06:26;12.95;;;5.38;;
56081;SDS011;41957;52.060;5.138;2022-11-20T03:08:51;13.25;;;5.43;;
56081;SDS011;41957;52.060;5.138;2022-11-20T03:11:16;14.73;;;5.30;;
56081;SDS011;41957;52.060;5.138;2022-11-20T03:13:42;12.65;;;4.90;;
56081;SDS011;41957;52.060;5.138;2022-11-20T03:16:08;13.45;;;5.00;;
56081;SDS011;41957;52.060;5.138;2022-11-20T03:18:38;13.82;;;5.45;;
56081;SDS011;41957;52.060;5.138;2022-11-20T03:21:05;14.90;;;5.47;;
56081;SDS011;41957;52.060;5.138;2022-11-20T03:23:31;13.07;;;5.30;;
56081;SDS011;41957;52.060;5.138;2022-11-20T03:28:54;12.93;;;5.05;;
56081;SDS011;41957;52.060;5.138;2022-11-20T03:31:25;12.98;;;5.20;;
56081;SDS011;41957;52.060;5.138;2022-11-20T03:33:56;13.15;;;5.03;;
56081;SDS011;41957;52.060;5.138;2022-11-20T03:36:23;12.13;;;4.53;;
56081;SDS011;41957;52.060;5.138;2022-11-20T03:38:48;13.60;;;5.72;;
56081;SDS011;41957;52.060;5.138;2022-11-20T03:41:16;13.38;;;5.35;;
56081;SDS011;41957;52.060;5.138;2022-11-20T03:43:46;14.73;;;5.55;;
56081;SDS011;41957;52.060;5.138;2022-11-20T03:46:13;12.45;;;4.72;;
56081;SDS011;41957;52.060;5.138;2022-11-20T03:48:38;12.25;;;5.10;;
56081;SDS011;41957;52.060;5.138;2022-11-20T03:53:35;11.15;;;4.47;;
56081;SDS011;41957;52.060;5.138;2022-11-20T03:56:01;14.40;;;5.00;;
56081;SDS011;41957;52.060;5.138;2022-11-20T03:58:27;12.70;;;5.45;;
56081;SDS011;41957;52.060;5.138;2022-11-20T04:00:52;13.23;;;5.15;;
56081;SDS011;41957;52.060;5.138;2022-11-20T04:03:17;12.10;;;4.80;;
56081;SDS011;41957;52.060;5.138;2022-11-20T04:05:43;12.02;;;5.00;;
56081;SDS011;41957;52.060;5.138;2022-11-20T04:08:09;13.00;;;4.88;;
56081;SDS011;41957;52.060;5.138;2022-11-20T04:10:34;12.57;;;4.90;;
56081;SDS011;41957;52.060;5.138;2022-11-20T04:12:59;12.82;;;4.93;;
56081;SDS011;41957;52.060;5.138;2022-11-20T04:15:25;13.13;;;5.03;;
56081;SDS011;41957;52.060;5.138;2022-11-20T04:17:50;12.63;;;5.53;;
56081;SDS011;41957;52.060;5.138;2022-11-20T04:20:15;12.75;;;5.07;;
56081;SDS011;41957;52.060;5.138;2022-11-20T04:22:41;13.38;;;5.35;;
56081;SDS011;41957;52.060;5.138;2022-11-20T04:25:06;13.70;;;5.30;;
56081;SDS011;41957;52.060;5.138;2022-11-20T04:27:32;12.60;;;5.30;;
56081;SDS011;41957;52.060;5.138;2022-11-20T04:29:57;12.68;;;5.10;;
56081;SDS011;41957;52.060;5.138;2022-11-20T04:32:22;13.35;;;5.38;;
56081;SDS011;41957;52.060;5.138;2022-11-20T04:34:48;12.68;;;4.80;;
56081;SDS011;41957;52.060;5.138;2022-11-20T04:37:13;12.45;;;5.32;;
56081;SDS011;41957;52.060;5.138;2022-11-20T04:39:38;13.75;;;5.57;;
56081;SDS011;41957;52.060;5.138;2022-11-20T04:42:04;12.02;;;5.10;;
56081;SDS011;41957;52.060;5.138;2022-11-20T04:44:48;12.85;;;5.20;;
56081;SDS011;41957;52.060;5.138;2022-11-20T04:47:13;12.57;;;5.38;;
56081;SDS011;41957;52.060;5.138;2022-11-20T04:49:38;12.43;;;5.40;;
56081;SDS011;41957;52.060;5.138;2022-11-20T04:52:04;12.43;;;5.18;;
56081;SDS011;41957;52.060;5.138;2022-11-20T04:54:29;11.55;;;4.55;;
56081;SDS011;41957;52.060;5.138;2022-11-20T04:56:54;13.15;;;5.05;;
56081;SDS011;41957;52.060;5.138;2022-11-20T04:59:20;11.57;;;5.05;;
56081;SDS011;41957;52.060;5.138;2022-11-20T05:01:45;14.20;;;5.90;;
56081;SDS011;41957;52.060;5.138;2022-11-20T05:04:10;12.98;;;5.40;;
56081;SDS011;41957;52.060;5.138;2022-11-20T05:06:36;13.18;;;5.60;;
56081;SDS011;41957;52.060;5.138;2022-11-20T05:09:01;13.35;;;5.50;;
56081;SDS011;41957;52.060;5.138;2022-11-20T05:11:27;13.80;;;5.60;;
56081;SDS011;41957;52.060;5.138;2022-11-20T05:13:54;12.25;;;5.15;;
56081;SDS011;41957;52.060;5.138;2022-11-20T05:16:23;13.43;;;5.40;;
56081;SDS011;41957;52.060;5.138;2022-11-20T05:18:50;13.00;;;5.35;;
56081;SDS011;41957;52.060;5.138;2022-11-20T05:21:16;12.25;;;5.05;;
56081;SDS011;41957;52.060;5.138;2022-11-20T05:23:42;12.18;;;5.28;;
56081;SDS011;41957;52.060;5.138;2022-11-20T05:26:12;12.77;;;5.10;;
56081;SDS011;41957;52.060;5.138;2022-11-20T05:28:39;13.25;;;5.50;;
56081;SDS011;41957;52.060;5.138;2022-11-20T05:31:12;11.98;;;5.10;;
56081;SDS011;41957;52.060;5.138;2022-11-20T05:33:45;14.38;;;5.25;;
56081;SDS011;41957;52.060;5.138;2022-11-20T05:36:12;12.40;;;5.15;;
56081;SDS011;41957;52.060;5.138;2022-11-20T05:38:38;12.85;;;5.10;;
56081;SDS011;41957;52.060;5.138;2022-11-20T05:41:11;11.80;;;5.30;;
56081;SDS011;41957;52.060;5.138;2022-11-20T05:43:39;12.97;;;5.43;;
56081;SDS011;41957;52.060;5.138;2022-11-20T05:46:06;12.32;;;5.20;;
56081;SDS011;41957;52.060;5.138;2022-11-20T05:48:33;12.25;;;4.97;;
56081;SDS011;41957;52.060;5.138;2022-11-20T05:51:00;12.27;;;5.05;;
56081;SDS011;41957;52.060;5.138;2022-11-20T05:53:26;12.95;;;5.10;;
56081;SDS011;41957;52.060;5.138;2022-11-20T05:55:58;12.27;;;5.13;;
56081;SDS011;41957;52.060;5.138;2022-11-20T05:58:29;13.75;;;5.50;;
56081;SDS011;41957;52.060;5.138;2022-11-20T06:01:02;12.48;;;5.10;;
56081;SDS011;41957;52.060;5.138;2022-11-20T06:03:29;12.45;;;5.22;;
56081;SDS011;41957;52.060;5.138;2022-11-20T06:05:55;12.52;;;5.30;;
56081;SDS011;41957;52.060;5.138;2022-11-20T06:08:20;12.18;;;5.28;;
56081;SDS011;41957;52.060;5.138;2022-11-20T06:10:45;13.10;;;5.38;;
56081;SDS011;41957;52.060;5.138;2022-11-20T06:13:11;13.38;;;5.60;;
56081;SDS011;41957;52.060;5.138;2022-11-20T06:15:36;12.25;;;5.40;;
56081;SDS011;41957;52.060;5.138;2022-11-20T06:18:01;12.57;;;5.03;;
56081;SDS011;41957;52.060;5.138;2022-11-20T06:20:27;12.70;;;5.32;;
56081;SDS011;41957;52.060;5.138;2022-11-20T06:22:52;12.57;;;5.25;;
56081;SDS011;41957;52.060;5.138;2022-11-20T06:25:17;12.07;;;5.38;;
56081;SDS011;41957;52.060;5.138;2022-11-20T06:27:42;13.18;;;6.07;;
56081;SDS011;41957;52.060;5.138;2022-11-20T06:30:08;12.77;;;5.25;;
56081;SDS011;41957;52.060;5.138;2022-11-20T06:32:34;11.48;;;5.05;;
56081;SDS011;41957;52.060;5.138;2022-11-20T06:34:59;13.38;;;5.45;;
56081;SDS011;41957;52.060;5.138;2022-11-20T06:37:24;12.50;;;4.97;;
56081;SDS011;41957;52.060;5.138;2022-11-20T06:39:50;11.88;;;5.07;;
56081;SDS011;41957;52.060;5.138;2022-11-20T06:42:15;12.57;;;5.32;;
56081;SDS011;41957;52.060;5.138;2022-11-20T06:44:40;12.38;;;5.47;;
56081;SDS011;41957;52.060;5.138;2022-11-20T06:47:06;12.57;;;5.20;;
56081;SDS011;41957;52.060;5.138;2022-11-20T06:49:31;12.70;;;5.28;;
56081;SDS011;41957;52.060;5.138;2022-11-20T06:51:57;12.65;;;5.60;;
56081;SDS011;41957;52.060;5.138;2022-11-20T06:54:22;12.23;;;5.63;;
56081;SDS011;41957;52.060;5.138;2022-11-20T06:56:47;12.20;;;5.35;;
56081;SDS011;41957;52.060;5.138;2022-11-20T06:59:13;14.07;;;5.30;;
56081;SDS011;41957;52.060;5.138;2022-11-20T07:01:38;12.30;;;5.20;;
56081;SDS011;41957;52.060;5.138;2022-11-20T07:04:04;12.93;;;5.25;;
56081;SDS011;41957;52.060;5.138;2022-11-20T07:06:29;13.68;;;5.65;;
56081;SDS011;41957;52.060;5.138;2022-11-20T07:08:55;13.45;;;5.68;;
56081;SDS011;41957;52.060;5.138;2022-11-20T07:11:20;12.10;;;4.97;;
56081;SDS011;41957;52.060;5.138;2022-11-20T07:13:46;13.27;;;5.40;;
56081;SDS011;41957;52.060;5.138;2022-11-20T07:16:11;13.07;;;5.40;;
56081;SDS011;41957;52.060;5.138;2022-11-20T07:18:36;12.38;;;5.57;;
56081;SDS011;41957;52.060;5.138;2022-11-20T07:21:02;12.38;;;5.50;;
56081;SDS011;41957;52.060;5.138;2022-11-20T07:23:30;13.20;;;5.43;;
56081;SDS011;41957;52.060;5.138;2022-11-20T07:25:56;12.43;;;5.25;;
56081;SDS011;41957;52.060;5.138;2022-11-20T07:28:21;13.10;;;5.95;;
56081;SDS011;41957;52.060;5.138;2022-11-20T07:30:53;12.68;;;5.30;;
56081;SDS011;41957;52.060;5.138;2022-11-20T07:33:19;13.95;;;6.25;;
56081;SDS011;41957;52.060;5.138;2022-11-20T07:35:44;13.85;;;5.65;;
56081;SDS011;41957;52.060;5.138;2022-11-20T07:38:10;12.45;;;5.47;;
56081;SDS011;41957;52.060;5.138;2022-11-20T07:40:35;12.55;;;4.95;;
56081;SDS011;41957;52.060;5.138;2022-11-20T07:43:01;12.88;;;5.32;;
56081;SDS011;41957;52.060;5.138;2022-11-20T07:45:26;12.73;;;5.93;;
56081;SDS011;41957;52.060;5.138;2022-11-20T07:47:51;13.70;;;5.75;;
56081;SDS011;41957;52.060;5.138;2022-11-20T07:50:17;12.93;;;5.78;;
56081;SDS011;41957;52.060;5.138;2022-11-20T07:52:43;13.52;;;5.57;;
56081;SDS011;41957;52.060;5.138;2022-11-20T07:55:09;13.23;;;5.63;;
56081;SDS011;41957;52.060;5.138;2022-11-20T07:57:35;13.45;;;6.15;;
56081;SDS011;41957;52.060;5.138;2022-11-20T08:00:01;13.00;;;5.40;;
56081;SDS011;41957;52.060;5.138;2022-11-20T08:02:26;13.50;;;5.50;;
56081;SDS011;41957;52.060;5.138;2022-11-20T08:04:51;13.10;;;5.50;;
56081;SDS011;41957;52.060;5.138;2022-11-20T08:07:17;12.10;;;5.50;;
56081;SDS011;41957;52.060;5.138;2022-11-20T08:09:42;12.07;;;5.32;;
56081;SDS011;41957;52.060;5.138;2022-11-20T08:12:08;12.68;;;5.60;;
56081;SDS011;41957;52.060;5.138;2022-11-20T08:14:58;12.23;;;5.30;;
56081;SDS011;41957;52.060;5.138;2022-11-20T08:17:23;13.57;;;4.97;;
56081;SDS011;41957;52.060;5.138;2022-11-20T08:19:49;12.82;;;5.10;;
56081;SDS011;41957;52.060;5.138;2022-11-20T08:22:14;12.07;;;4.82;;
56081;SDS011;41957;52.060;5.138;2022-11-20T08:24:40;15.50;;;5.45;;
56081;SDS011;41957;52.060;5.138;2022-11-20T08:27:06;13.30;;;5.25;;
56081;SDS011;41957;52.060;5.138;2022-11-20T08:29:31;13.57;;;5.28;;
56081;SDS011;41957;52.060;5.138;2022-11-20T08:31:56;13.20;;;5.80;;
56081;SDS011;41957;52.060;5.138;2022-11-20T08:34:22;15.23;;;5.22;;
56081;SDS011;41957;52.060;5.138;2022-11-20T08:36:47;12.50;;;5.30;;
56081;SDS011;41957;52.060;5.138;2022-11-20T08:39:12;13.70;;;5.32;;
56081;SDS011;41957;52.060;5.138;2022-11-20T08:41:38;12.60;;;4.97;;
56081;SDS011;41957;52.060;5.138;2022-11-20T08:44:05;13.40;;;5.63;;
56081;SDS011;41957;52.060;5.138;2022-11-20T08:46:33;13.20;;;5.07;;
56081;SDS011;41957;52.060;5.138;2022-11-20T08:49:03;12.93;;;5.15;;
56081;SDS011;41957;52.060;5.138;2022-11-20T08:51:29;12.43;;;5.20;;
56081;SDS011;41957;52.060;5.138;2022-11-20T08:53:55;12.48;;;4.90;;
56081;SDS011;41957;52.060;5.138;2022-11-20T08:56:20;12.50;;;5.40;;
56081;SDS011;41957;52.060;5.138;2022-11-20T08:58:46;12.20;;;5.00;;
56081;SDS011;41957;52.060;5.138;2022-11-20T09:01:11;12.68;;;4.85;;
56081;SDS011;41957;52.060;5.138;2022-11-20T09:03:36;12.18;;;4.93;;
56081;SDS011;41957;52.060;5.138;2022-11-20T09:06:02;13.85;;;5.93;;
56081;SDS011;41957;52.060;5.138;2022-11-20T09:08:30;12.85;;;5.57;;
56081;SDS011;41957;52.060;5.138;2022-11-20T09:10:56;13.65;;;6.22;;
56081;SDS011;41957;52.060;5.138;2022-11-20T09:13:23;14.80;;;6.13;;
56081;SDS011;41957;52.060;5.138;2022-11-20T09:15:52;13.82;;;6.55;;
56081;SDS011;41957;52.060;5.138;2022-11-20T09:18:22;14.63;;;6.88;;
56081;SDS011;41957;52.060;5.138;2022-11-20T09:20:48;14.55;;;6.13;;
56081;SDS011;41957;52.060;5.138;2022-11-20T09:23:14;14.57;;;6.15;;
56081;SDS011;41957;52.060;5.138;2022-11-20T09:25:40;14.25;;;6.28;;
56081;SDS011;41957;52.060;5.138;2022-11-20T09:28:05;13.45;;;6.03;;
56081;SDS011;41957;52.060;5.138;2022-11-20T09:30:31;15.05;;;6.70;;
56081;SDS011;41957;52.060;5.138;2022-11-20T09:32:56;13.93;;;6.20;;
56081;SDS011;41957;52.060;5.138;2022-11-20T09:35:22;14.90;;;6.05;;
56081;SDS011;41957;52.060;5.138;2022-11-20T09:37:47;13.80;;;5.85;;
56081;SDS011;41957;52.060;5.138;2022-11-20T09:40:18;13.20;;;5.70;;
56081;SDS011;41957;52.060;5.138;2022-11-20T09:56:15;13.82;;;5.78;;
56081;SDS011;41957;52.060;5.138;2022-11-20T09:58:43;15.45;;;5.93;;
56081;SDS011;41957;52.060;5.138;2022-11-20T10:01:15;14.32;;;5.60;;
56081;SDS011;41957;52.060;5.138;2022-11-20T10:03:50;12.20;;;5.63;;
56081;SDS011;41957;52.060;5.138;2022-11-20T10:06:47;13.60;;;5.72;;
56081;SDS011;41957;52.060;5.138;2022-11-20T10:25:43;13.02;;;5.40;;
56081;SDS011;41957;52.060;5.138;2022-11-20T10:28:13;13.05;;;5.57;;
56081;SDS011;41957;52.060;5.138;2022-11-20T10:30:53;14.05;;;5.60;;
56081;SDS011;41957;52.060;5.138;2022-11-20T10:33:36;12.60;;;5.80;;
56081;SDS011;41957;52.060;5.138;2022-11-20T10:36:12;16.77;;;5.78;;
56081;SDS011;41957;52.060;5.138;2022-11-20T10:38:50;16.85;;;5.82;;
56081;SDS011;41957;52.060;5.138;2022-11-20T10:41:23;13.52;;;5.80;;
56081;SDS011;41957;52.060;5.138;2022-11-20T10:44:03;14.55;;;6.00;;
56081;SDS011;41957;52.060;5.138;2022-11-20T10:46:40;15.75;;;6.72;;
56081;SDS011;41957;52.060;5.138;2022-11-20T10:49:15;14.93;;;6.78;;
56081;SDS011;41957;52.060;5.138;2022-11-20T11:00:36;17.63;;;7.40;;
56081;SDS011;41957;52.060;5.138;2022-11-20T11:03:01;23.60;;;7.65;;
56081;SDS011;41957;52.060;5.138;2022-11-20T11:08:18;16.10;;;7.18;;
56081;SDS011;41957;52.060;5.138;2022-11-20T11:10:46;18.13;;;7.30;;
56081;SDS011;41957;52.060;5.138;2022-11-20T11:13:23;17.20;;;7.35;;
56081;SDS011;41957;52.060;5.138;2022-11-20T11:15:50;15.68;;;6.80;;
56081;SDS011;41957;52.060;5.138;2022-11-20T11:18:29;19.50;;;7.88;;
56081;SDS011;41957;52.060;5.138;2022-11-20T11:20:57;18.58;;;7.75;;
56081;SDS011;41957;52.060;5.138;2022-11-20T11:23:32;17.92;;;7.65;;
56081;SDS011;41957;52.060;5.138;2022-11-20T11:26:02;18.35;;;7.82;;
56081;SDS011;41957;52.060;5.138;2022-11-20T11:28:29;16.40;;;7.40;;
56081;SDS011;41957;52.060;5.138;2022-11-20T11:30:55;18.95;;;9.43;;
56081;SDS011;41957;52.060;5.138;2022-11-20T11:33:21;20.77;;;8.95;;
56081;SDS011;41957;52.060;5.138;2022-11-20T11:35:56;18.60;;;8.57;;
56081;SDS011;41957;52.060;5.138;2022-11-20T11:38:29;18.83;;;8.88;;
56081;SDS011;41957;52.060;5.138;2022-11-20T11:41:00;17.17;;;7.88;;
56081;SDS011;41957;52.060;5.138;2022-11-20T11:43:28;17.88;;;8.43;;
56081;SDS011;41957;52.060;5.138;2022-11-20T11:46:29;19.75;;;8.65;;
56081;SDS011;41957;52.060;5.138;2022-11-20T11:54:29;22.25;;;8.32;;
56081;SDS011;41957;52.060;5.138;2022-11-20T11:57:00;17.02;;;7.63;;
56081;SDS011;41957;52.060;5.138;2022-11-20T12:05:01;16.58;;;7.15;;
56081;SDS011;41957;52.060;5.138;2022-11-20T12:07:43;21.48;;;7.68;;
56081;SDS011;41957;52.060;5.138;2022-11-20T12:10:55;18.45;;;8.10;;
56081;SDS011;41957;52.060;5.138;2022-11-20T12:13:02;17.52;;;8.30;;
56081;SDS011;41957;52.060;5.138;2022-11-20T12:15:40;16.25;;;7.28;;
56081;SDS011;41957;52.060;5.138;2022-11-20T12:18:13;20.48;;;7.70;;
56081;SDS011;41957;52.060;5.138;2022-11-20T12:20:41;19.13;;;8.10;;
56081;SDS011;41957;52.060;5.138;2022-11-20T12:23:24;19.80;;;7.78;;
56081;SDS011;41957;52.060;5.138;2022-11-20T12:26:01;18.25;;;8.00;;
56081;SDS011;41957;52.060;5.138;2022-11-20T12:29:06;16.60;;;7.50;;
56081;SDS011;41957;52.060;5.138;2022-11-20T12:34:08;16.58;;;7.60;;
56081;SDS011;41957;52.060;5.138;2022-11-20T12:36:58;18.40;;;8.05;;
56081;SDS011;41957;52.060;5.138;2022-11-20T12:39:34;19.02;;;7.90;;
56081;SDS011;41957;52.060;5.138;2022-11-20T12:48:36;18.98;;;8.02;;
56081;SDS011;41957;52.060;5.138;2022-11-20T12:59:01;20.10;;;8.40;;
56081;SDS011;41957;52.060;5.138;2022-11-20T13:01:56;25.30;;;9.40;;
56081;SDS011;41957;52.060;5.138;2022-11-20T13:04:53;22.60;;;8.80;;
56081;SDS011;41957;52.060;5.138;2022-11-20T13:07:19;20.95;;;8.75;;
56081;SDS011;41957;52.060;5.138;2022-11-20T13:09:48;22.17;;;8.88;;
56081;SDS011;41957;52.060;5.138;2022-11-20T13:12:17;17.60;;;8.27;;
56081;SDS011;41957;52.060;5.138;2022-11-20T13:15:22;20.75;;;8.48;;
56081;SDS011;41957;52.060;5.138;2022-11-20T13:17:59;19.67;;;8.70;;
56081;SDS011;41957;52.060;5.138;2022-11-20T13:20:26;21.48;;;8.88;;
56081;SDS011;41957;52.060;5.138;2022-11-20T13:22:54;20.38;;;8.73;;
56081;SDS011;41957;52.060;5.138;2022-11-20T13:25:26;19.60;;;9.20;;
56081;SDS011;41957;52.060;5.138;2022-11-20T13:27:54;19.95;;;7.97;;
56081;SDS011;41957;52.060;5.138;2022-11-20T13:30:23;19.75;;;9.57;;
56081;SDS011;41957;52.060;5.138;2022-11-20T13:33:07;19.08;;;8.20;;
56081;SDS011;41957;52.060;5.138;2022-11-20T13:36:00;19.52;;;8.43;;
56081;SDS011;41957;52.060;5.138;2022-11-20T13:38:27;18.98;;;9.05;;
56081;SDS011;41957;52.060;5.138;2022-11-20T13:40:57;20.90;;;8.75;;
56081;SDS011;41957;52.060;5.138;2022-11-20T13:43:44;18.73;;;8.60;;
56081;SDS011;41957;52.060;5.138;2022-11-20T13:46:12;18.85;;;8.52;;
56081;SDS011;41957;52.060;5.138;2022-11-20T13:48:39;18.90;;;8.57;;
56081;SDS011;41957;52.060;5.138;2022-11-20T13:56:24;18.55;;;8.57;;
56081;SDS011;41957;52.060;5.138;2022-11-20T13:59:11;19.55;;;9.45;;
56081;SDS011;41957;52.060;5.138;2022-11-20T14:01:44;17.92;;;8.35;;
56081;SDS011;41957;52.060;5.138;2022-11-20T14:04:14;17.63;;;8.40;;
56081;SDS011;41957;52.060;5.138;2022-11-20T14:06:43;18.52;;;8.38;;
56081;SDS011;41957;52.060;5.138;2022-11-20T14:09:27;20.88;;;8.68;;
56081;SDS011;41957;52.060;5.138;2022-11-20T14:11:54;19.08;;;8.75;;
56081;SDS011;41957;52.060;5.138;2022-11-20T14:14:21;18.13;;;8.88;;
56081;SDS011;41957;52.060;5.138;2022-11-20T14:16:49;18.42;;;8.60;;
56081;SDS011;41957;52.060;5.138;2022-11-20T14:19:36;21.17;;;9.27;;
56081;SDS011;41957;52.060;5.138;2022-11-20T14:22:22;19.48;;;9.10;;
56081;SDS011;41957;52.060;5.138;2022-11-20T14:24:51;17.55;;;8.68;;
56081;SDS011;41957;52.060;5.138;2022-11-20T14:27:27;19.15;;;8.98;;
56081;SDS011;41957;52.060;5.138;2022-11-20T14:29:52;19.80;;;9.20;;
56081;SDS011;41957;52.060;5.138;2022-11-20T14:32:19;21.67;;;9.73;;
56081;SDS011;41957;52.060;5.138;2022-11-20T14:34:47;19.92;;;9.38;;
56081;SDS011;41957;52.060;5.138;2022-11-20T14:37:19;21.52;;;9.18;;
56081;SDS011;41957;52.060;5.138;2022-11-20T14:39:49;16.30;;;7.93;;
56081;SDS011;41957;52.060;5.138;2022-11-20T14:44:47;18.23;;;8.70;;
56081;SDS011;41957;52.060;5.138;2022-11-20T14:47:15;18.17;;;8.07;;
56081;SDS011;41957;52.060;5.138;2022-11-20T14:49:44;18.25;;;8.25;;
56081;SDS011;41957;52.060;5.138;2022-11-20T14:52:15;18.40;;;9.13;;
56081;SDS011;41957;52.060;5.138;2022-11-20T14:54:49;18.73;;;9.70;;
56081;SDS011;41957;52.060;5.138;2022-11-20T14:57:29;20.30;;;9.68;;
56081;SDS011;41957;52.060;5.138;2022-11-20T15:02:43;21.27;;;9.00;;
56081;SDS011;41957;52.060;5.138;2022-11-20T15:05:14;19.42;;;9.20;;
56081;SDS011;41957;52.060;5.138;2022-11-20T15:07:42;21.50;;;9.68;;
56081;SDS011;41957;52.060;5.138;2022-11-20T15:10:20;20.70;;;9.18;;
56081;SDS011;41957;52.060;5.138;2022-11-20T15:12:53;20.52;;;9.18;;
56081;SDS011;41957;52.060;5.138;2022-11-20T15:15:31;18.15;;;9.30;;
56081;SDS011;41957;52.060;5.138;2022-11-20T15:18:00;19.33;;;9.05;;
56081;SDS011;41957;52.060;5.138;2022-11-20T15:20:27;18.98;;;9.10;;
56081;SDS011;41957;52.060;5.138;2022-11-20T15:22:55;18.45;;;9.40;;
56081;SDS011;41957;52.060;5.138;2022-11-20T15:25:20;21.48;;;9.10;;
56081;SDS011;41957;52.060;5.138;2022-11-20T15:27:46;17.77;;;9.25;;
56081;SDS011;41957;52.060;5.138;2022-11-20T15:30:19;19.77;;;9.20;;
56081;SDS011;41957;52.060;5.138;2022-11-20T15:32:45;18.15;;;9.02;;
56081;SDS011;41957;52.060;5.138;2022-11-20T15:35:12;18.00;;;9.13;;
56081;SDS011;41957;52.060;5.138;2022-11-20T15:37:39;21.55;;;9.55;;
56081;SDS011;41957;52.060;5.138;2022-11-20T15:40:05;20.02;;;8.98;;
56081;SDS011;41957;52.060;5.138;2022-11-20T15:42:31;21.63;;;9.77;;
56081;SDS011;41957;52.060;5.138;2022-11-20T15:44:57;18.58;;;8.35;;
56081;SDS011;41957;52.060;5.138;2022-11-20T15:47:24;18.67;;;8.93;;
56081;SDS011;41957;52.060;5.138;2022-11-20T15:49:53;18.85;;;8.70;;
56081;SDS011;41957;52.060;5.138;2022-11-20T15:52:18;19.73;;;9.00;;
56081;SDS011;41957;52.060;5.138;2022-11-20T15:54:44;17.02;;;7.75;;
56081;SDS011;41957;52.060;5.138;2022-11-20T15:57:09;17.77;;;8.27;;
56081;SDS011;41957;52.060;5.138;2022-11-20T15:59:34;17.08;;;8.15;;
56081;SDS011;41957;52.060;5.138;2022-11-20T16:02:08;17.10;;;8.23;;
56081;SDS011;41957;52.060;5.138;2022-11-20T16:04:35;16.38;;;8.10;;
56081;SDS011;41957;52.060;5.138;2022-11-20T16:07:00;15.38;;;7.78;;
56081;SDS011;41957;52.060;5.138;2022-11-20T16:09:25;16.70;;;7.75;;
56081;SDS011;41957;52.060;5.138;2022-11-20T16:11:51;17.23;;;8.13;;
56081;SDS011;41957;52.060;5.138;2022-11-20T16:14:16;16.50;;;8.15;;
56081;SDS011;41957;52.060;5.138;2022-11-20T16:17:00;16.20;;;7.43;;
56081;SDS011;41957;52.060;5.138;2022-11-20T16:19:26;17.20;;;8.13;;
56081;SDS011;41957;52.060;5.138;2022-11-20T16:21:52;16.25;;;7.28;;
56081;SDS011;41957;52.060;5.138;2022-11-20T16:24:17;16.58;;;7.60;;
56081;SDS011;41957;52.060;5.138;2022-11-20T16:26:42;14.45;;;7.22;;